createdAt,value
2023-08-16T08:33:56.718Z,47.94
2023-08-16T08:37:00.628Z,48.07
2023-08-16T08:40:04.233Z,48.15
2023-08-16T08:43:07.490Z,47.66
2023-08-16T08:46:10.150Z,46.37
2023-08-16T08:49:14.951Z,44.44
2023-08-16T08:52:18.922Z,43.56
2023-08-16T08:55:21.685Z,44.29
2023-08-16T08:58:26.286Z,44.91
2023-08-16T09:01:29.224Z,45.23
2023-08-16T09:04:34.346Z,44.75
2023-08-16T09:07:41.295Z,44.57
2023-08-16T09:10:44.495Z,44.60
2023-08-16T09:13:48.604Z,44.73
2023-08-16T09:16:51.079Z,43.38
2023-08-16T09:19:53.704Z,44.81
2023-08-16T09:22:56.794Z,44.95
2023-08-16T09:26:00.933Z,44.52
2023-08-16T09:29:04.245Z,43.48
2023-08-16T09:32:09.483Z,42.30
2023-08-16T09:35:14.847Z,41.79
2023-08-16T09:38:37.979Z,43.49
2023-08-16T09:41:52.336Z,43.80
2023-08-16T09:44:55.233Z,44.79
2023-08-16T09:48:00.678Z,45.94
2023-08-16T09:54:14.691Z,47.57
2023-08-16T10:00:24.869Z,45.20
2023-08-16T10:03:27.841Z,44.35
2023-08-16T10:09:43.101Z,42.41
2023-08-16T10:12:48.761Z,41.83
2023-08-16T10:15:56.830Z,42.90
2023-08-16T10:19:02.022Z,41.89
2023-08-16T10:22:22.930Z,42.12
2023-08-16T10:25:39.907Z,41.14
2023-08-16T10:28:46.422Z,39.09
2023-08-16T10:31:51.089Z,37.04
2023-08-16T10:34:56.394Z,36.98
2023-08-16T10:37:58.936Z,38.12
2023-08-16T10:41:13.610Z,34.51
2023-08-16T10:44:24.626Z,39.05
2023-08-16T10:47:28.619Z,37.74
2023-08-16T10:50:35.576Z,39.55
2023-08-16T10:53:38.881Z,34.78
2023-08-16T10:56:45.771Z,31.84
2023-08-16T10:59:49.419Z,30.69
2023-08-16T11:02:55.907Z,28.77
2023-08-16T11:06:01.518Z,28.08
2023-08-16T11:09:04.336Z,28.84
2023-08-16T11:12:09.865Z,27.57
2023-08-16T11:15:12.361Z,28.84
2023-08-16T11:18:16.717Z,27.33
2023-08-16T11:21:20.857Z,28.75
2023-08-16T11:24:25.074Z,26.96
2023-08-16T11:27:27.820Z,26.76
2023-08-16T11:30:33.694Z,26.78
2023-08-16T11:33:44.047Z,26.35
2023-08-16T11:36:46.478Z,27.88
2023-08-16T11:40:00.096Z,24.89
2023-08-16T11:43:05.987Z,23.60
2023-08-16T11:46:08.669Z,22.34
2023-08-16T11:49:14.143Z,23.91
2023-08-16T11:52:26.886Z,23.16
2023-08-16T11:55:31.346Z,23.50
2023-08-16T11:58:45.209Z,23.94
2023-08-16T12:01:48.814Z,25.89
2023-08-16T12:04:52.459Z,26.19
2023-08-16T12:07:54.984Z,22.90
2023-08-16T12:10:57.533Z,21.65
2023-08-16T12:14:02.722Z,21.04
2023-08-16T12:17:06.576Z,19.52
2023-08-16T12:20:10.247Z,20.98
2023-08-16T12:23:13.173Z,21.92
2023-08-16T12:26:15.898Z,24.80
2023-08-16T12:29:18.615Z,22.67
2023-08-16T12:32:21.141Z,22.78
2023-08-16T12:35:24.078Z,22.62
2023-08-16T12:38:27.168Z,21.04
2023-08-16T12:41:29.636Z,22.29
2023-08-16T12:44:32.361Z,21.33
2023-08-16T12:47:34.892Z,20.06
2023-08-16T12:50:37.935Z,19.41
2023-08-16T12:53:40.362Z,19.43
2023-08-16T12:56:46.441Z,20.12
2023-08-16T12:59:51.922Z,21.59
2023-08-16T13:02:57.910Z,19.52
2023-08-16T13:06:07.680Z,19.56
2023-08-16T13:09:25.428Z,20.33
2023-08-16T13:12:33.404Z,21.03
2023-08-16T13:15:40.786Z,19.22
2023-08-16T13:18:45.791Z,18.34
2023-08-16T13:28:02.493Z,19.11
2023-08-16T13:31:06.810Z,18.39
2023-08-16T13:46:41.370Z,17.61
2023-08-16T13:49:46.552Z,18.07
2023-08-16T13:52:49.040Z,17.82
2023-08-16T13:55:51.538Z,17.59
2023-08-16T13:58:54.062Z,18.20
2023-08-16T14:01:56.616Z,17.46
2023-08-16T14:04:59.052Z,16.63
2023-08-16T14:08:01.633Z,17.92
2023-08-16T14:11:04.372Z,18.57
2023-08-16T14:14:06.995Z,19.72
2023-08-16T14:17:09.645Z,18.82
2023-08-16T14:20:12.412Z,19.25
2023-08-16T14:23:16.211Z,19.39
2023-08-16T14:26:22.077Z,20.83
2023-08-16T14:29:24.991Z,19.75
2023-08-16T14:32:27.883Z,19.52
2023-08-16T14:35:30.536Z,19.95
2023-08-16T14:38:35.375Z,19.54
2023-08-16T14:41:40.074Z,19.18
2023-08-16T14:44:42.462Z,18.38
2023-08-16T14:47:44.940Z,18.74
2023-08-16T14:50:47.463Z,19.37
2023-08-16T14:53:50.113Z,19.82
2023-08-16T14:56:52.630Z,19.79
2023-08-16T14:59:55.356Z,19.83
2023-08-16T15:03:00.802Z,18.65
2023-08-16T15:06:03.930Z,18.70
2023-08-16T15:09:07.542Z,20.00
2023-08-16T15:12:10.027Z,20.71
2023-08-16T15:15:13.847Z,19.93
2023-08-16T15:18:16.350Z,20.90
2023-08-16T15:21:18.788Z,21.12
2023-08-16T15:24:21.293Z,19.41
2023-08-16T15:27:23.801Z,21.39
2023-08-16T15:30:26.327Z,22.15
2023-08-16T15:33:29.134Z,23.23
2023-08-16T15:36:31.580Z,21.19
2023-08-16T15:39:34.068Z,21.03
2023-08-16T15:42:36.710Z,21.35
2023-08-16T15:45:39.759Z,24.64
2023-08-16T15:48:42.320Z,26.92
2023-08-16T15:51:44.854Z,28.56
2023-08-16T15:54:47.374Z,28.23
2023-08-16T15:57:49.827Z,26.30
2023-08-16T16:00:56.513Z,26.29
2023-08-16T16:03:59.774Z,25.05
2023-08-16T16:07:02.404Z,24.22
2023-08-16T16:10:05.249Z,23.63
2023-08-16T16:13:08.112Z,24.76
2023-08-16T16:16:10.772Z,24.94
2023-08-16T16:19:13.763Z,25.63
2023-08-16T16:22:16.492Z,26.05
2023-08-16T16:25:18.965Z,26.22
2023-08-16T16:28:21.489Z,25.92
2023-08-16T16:31:24.005Z,26.29
2023-08-16T16:34:26.474Z,27.08
2023-08-16T16:37:28.974Z,28.04
2023-08-16T16:40:31.570Z,28.05
2023-08-16T16:43:34.515Z,27.80
2023-08-16T16:46:37.013Z,29.81
2023-08-16T16:49:39.508Z,29.75
2023-08-16T16:52:41.939Z,30.43
2023-08-16T16:55:46.053Z,30.78
2023-08-16T16:58:48.911Z,31.91
2023-08-16T17:01:51.550Z,31.77
2023-08-16T17:04:54.034Z,32.16
2023-08-16T17:07:57.337Z,32.86
2023-08-16T17:10:59.846Z,33.45
2023-08-16T17:14:02.339Z,33.72
2023-08-16T17:17:06.782Z,34.37
2023-08-16T17:20:10.973Z,36.31
2023-08-16T17:23:13.521Z,36.82
2023-08-16T17:26:16.099Z,37.81
2023-08-16T17:29:18.571Z,38.01
2023-08-16T17:32:21.067Z,39.54
2023-08-16T17:35:23.498Z,39.42
2023-08-16T17:38:26.037Z,39.63
2023-08-16T17:41:28.820Z,40.66
2023-08-16T17:44:31.234Z,41.35
2023-08-16T17:47:35.809Z,42.47
2023-08-16T17:50:41.260Z,62.47
2023-08-16T17:54:16.246Z,100.00
2023-08-16T17:57:18.730Z,100.00
2023-08-16T18:00:21.193Z,100.00
2023-08-16T18:03:24.797Z,100.00
2023-08-16T18:06:27.409Z,100.00
2023-08-16T18:09:31.813Z,100.00
2023-08-16T18:12:34.406Z,100.00
2023-08-16T18:15:36.826Z,100.00
2023-08-16T18:18:39.310Z,100.00
2023-08-16T18:21:41.765Z,100.00
2023-08-16T18:24:44.283Z,100.00
2023-08-16T18:27:46.832Z,100.00
2023-08-16T18:30:50.295Z,100.00
2023-08-16T18:33:52.805Z,100.00
2023-08-16T18:36:55.327Z,100.00
2023-08-16T18:39:57.955Z,100.00
2023-08-16T18:43:00.509Z,100.00
2023-08-16T18:46:03.068Z,100.00
2023-08-16T18:49:05.595Z,100.00
2023-08-16T18:52:08.062Z,100.00
2023-08-16T18:55:10.545Z,100.00
2023-08-16T18:58:13.038Z,100.00
2023-08-16T19:01:17.724Z,100.00
2023-08-16T19:04:21.388Z,100.00
2023-08-16T19:07:24.075Z,100.00
2023-08-16T19:10:26.729Z,100.00
2023-08-16T19:13:29.170Z,100.00
2023-08-16T19:16:33.930Z,100.00
2023-08-16T19:19:36.648Z,100.00
2023-08-16T19:22:39.329Z,100.00
2023-08-16T19:25:41.877Z,100.00
2023-08-16T19:28:44.422Z,100.00
2023-08-16T19:31:46.965Z,100.00
2023-08-16T19:34:49.606Z,100.00
2023-08-16T19:37:52.200Z,100.00
2023-08-16T19:40:54.703Z,100.00
2023-08-16T19:44:06.949Z,100.00
2023-08-16T19:47:09.684Z,100.00
2023-08-16T19:50:23.588Z,100.00
2023-08-16T19:53:26.684Z,100.00
2023-08-16T19:56:29.313Z,100.00
2023-08-16T19:59:31.739Z,100.00
2023-08-16T20:02:34.663Z,100.00
2023-08-16T20:05:39.538Z,100.00
2023-08-16T20:08:41.906Z,100.00
2023-08-16T20:11:44.577Z,100.00
2023-08-16T20:14:47.015Z,100.00
2023-08-16T20:17:49.451Z,100.00
2023-08-16T20:20:52.045Z,100.00
2023-08-16T20:23:54.543Z,100.00
2023-08-16T20:26:57.072Z,100.00
2023-08-16T20:30:00.151Z,100.00
2023-08-16T20:33:02.702Z,100.00
2023-08-16T20:36:05.922Z,100.00
2023-08-16T20:39:09.181Z,100.00
2023-08-16T20:42:11.806Z,100.00
2023-08-16T20:45:14.359Z,100.00
2023-08-16T20:48:16.869Z,100.00
2023-08-16T20:51:19.396Z,100.00
2023-08-16T20:54:21.908Z,100.00
2023-08-16T20:57:25.231Z,100.00
2023-08-16T21:00:27.923Z,100.00
2023-08-16T21:03:30.335Z,100.00
2023-08-16T21:06:32.753Z,100.00
2023-08-16T21:09:36.360Z,100.00
2023-08-16T21:12:38.829Z,100.00
2023-08-16T21:15:41.372Z,100.00
2023-08-16T21:18:43.857Z,100.00
2023-08-16T21:21:46.358Z,100.00
2023-08-16T21:24:48.939Z,100.00
2023-08-16T21:27:51.819Z,100.00
2023-08-16T21:30:54.340Z,100.00
2023-08-16T21:33:56.863Z,100.00
2023-08-16T21:37:00.380Z,100.00
2023-08-16T21:40:03.057Z,100.00
2023-08-16T21:43:05.681Z,100.00
2023-08-16T21:46:08.179Z,100.00
2023-08-16T21:49:11.660Z,100.00
2023-08-16T21:52:14.137Z,100.00
2023-08-16T21:55:16.700Z,100.00
2023-08-16T21:58:19.654Z,100.00
2023-08-16T22:01:22.141Z,100.00
2023-08-16T22:04:24.822Z,100.00
2023-08-16T22:07:27.423Z,100.00
2023-08-16T22:10:30.547Z,100.00
2023-08-16T22:13:33.296Z,100.00
2023-08-16T22:16:35.816Z,100.00
2023-08-16T22:19:38.335Z,100.00
2023-08-16T22:22:45.030Z,100.00
2023-08-16T22:25:47.491Z,100.00
2023-08-16T22:28:56.876Z,100.00
2023-08-16T22:31:59.531Z,100.00
2023-08-16T22:35:02.143Z,100.00
2023-08-16T22:38:04.729Z,100.00
2023-08-16T22:41:09.722Z,100.00
2023-08-16T22:44:12.268Z,100.00
2023-08-16T22:47:15.237Z,100.00
2023-08-16T22:50:19.710Z,100.00
2023-08-16T22:53:22.268Z,100.00
2023-08-16T22:56:24.721Z,100.00
2023-08-16T22:59:27.177Z,100.00
2023-08-16T23:02:29.684Z,100.00
2023-08-16T23:05:32.545Z,100.00
2023-08-16T23:08:34.990Z,100.00
2023-08-16T23:11:37.443Z,100.00
2023-08-16T23:14:39.976Z,100.00
2023-08-16T23:17:42.541Z,100.00
2023-08-16T23:20:45.088Z,100.00
2023-08-16T23:23:47.589Z,100.00
2023-08-16T23:26:50.078Z,100.00
2023-08-16T23:29:52.556Z,100.00
2023-08-16T23:32:55.159Z,100.00
2023-08-16T23:35:57.706Z,100.00
2023-08-16T23:39:00.284Z,100.00
2023-08-16T23:42:02.870Z,100.00
2023-08-16T23:45:05.875Z,100.00
2023-08-16T23:48:08.484Z,100.00
2023-08-16T23:51:11.227Z,100.00
2023-08-16T23:54:13.697Z,100.00
2023-08-16T23:57:16.154Z,100.00
